sensor_id;sensor_type;location;lat;lon;timestamp;P1;durP1;ratioP1;P2;durP2;ratioP2
26435;SDS011;15351;52.408;16.826;2023-07-30T00:01:15;9.80;;;6.30;;
26435;SDS011;15351;52.408;16.826;2023-07-30T00:03:42;8.10;;;5.80;;
26435;SDS011;15351;52.408;16.826;2023-07-30T00:06:09;10.80;;;6.20;;
26435;SDS011;15351;52.408;16.826;2023-07-30T00:08:39;8.50;;;5.80;;
26435;SDS011;15351;52.408;16.826;2023-07-30T00:11:06;7.70;;;5.80;;
26435;SDS011;15351;52.408;16.826;2023-07-30T00:13:32;7.50;;;5.50;;
26435;SDS011;15351;52.408;16.826;2023-07-30T00:15:59;8.90;;;5.70;;
26435;SDS011;15351;52.408;16.826;2023-07-30T00:18:25;8.30;;;5.70;;
26435;SDS011;15351;52.408;16.826;2023-07-30T00:20:53;9.50;;;5.60;;
26435;SDS011;15351;52.408;16.826;2023-07-30T00:23:22;7.50;;;5.60;;
26435;SDS011;15351;52.408;16.826;2023-07-30T00:25:55;8.10;;;5.60;;
26435;SDS011;15351;52.408;16.826;2023-07-30T00:28:26;7.90;;;5.80;;
26435;SDS011;15351;52.408;16.826;2023-07-30T00:30:53;9.90;;;5.90;;
26435;SDS011;15351;52.408;16.826;2023-07-30T00:33:20;6.70;;;5.50;;
26435;SDS011;15351;52.408;16.826;2023-07-30T00:35:52;9.40;;;5.80;;
26435;SDS011;15351;52.408;16.826;2023-07-30T00:38:31;11.10;;;5.90;;
26435;SDS011;15351;52.408;16.826;2023-07-30T00:41:49;7.40;;;5.50;;
26435;SDS011;15351;52.408;16.826;2023-07-30T00:45:59;8.70;;;5.90;;
26435;SDS011;15351;52.408;16.826;2023-07-30T00:49:06;6.50;;;5.80;;
26435;SDS011;15351;52.408;16.826;2023-07-30T00:51:37;8.40;;;5.80;;
26435;SDS011;15351;52.408;16.826;2023-07-30T01:01:12;10.80;;;6.40;;
26435;SDS011;15351;52.408;16.826;2023-07-30T01:04:32;9.60;;;6.30;;
26435;SDS011;15351;52.408;16.826;2023-07-30T01:08:11;11.70;;;6.20;;
26435;SDS011;15351;52.408;16.826;2023-07-30T01:11:16;6.70;;;6.00;;
26435;SDS011;15351;52.408;16.826;2023-07-30T01:14:02;11.10;;;6.50;;
26435;SDS011;15351;52.408;16.826;2023-07-30T01:17:53;9.10;;;6.50;;
26435;SDS011;15351;52.408;16.826;2023-07-30T01:20:30;11.80;;;6.50;;
26435;SDS011;15351;52.408;16.826;2023-07-30T01:23:42;8.60;;;6.70;;
26435;SDS011;15351;52.408;16.826;2023-07-30T01:26:55;10.10;;;6.90;;
26435;SDS011;15351;52.408;16.826;2023-07-30T01:36:31;13.00;;;7.20;;
26435;SDS011;15351;52.408;16.826;2023-07-30T01:43:25;8.20;;;6.80;;
26435;SDS011;15351;52.408;16.826;2023-07-30T01:46:32;11.30;;;7.20;;
26435;SDS011;15351;52.408;16.826;2023-07-30T01:56:25;11.10;;;7.80;;
26435;SDS011;15351;52.408;16.826;2023-07-30T02:00:23;10.10;;;8.00;;
26435;SDS011;15351;52.408;16.826;2023-07-30T02:03:32;11.40;;;8.00;;
26435;SDS011;15351;52.408;16.826;2023-07-30T02:06:19;11.00;;;7.90;;
26435;SDS011;15351;52.408;16.826;2023-07-30T02:20:45;12.40;;;8.50;;
26435;SDS011;15351;52.408;16.826;2023-07-30T02:28:13;13.40;;;8.10;;
26435;SDS011;15351;52.408;16.826;2023-07-30T02:36:26;12.10;;;7.60;;
26435;SDS011;15351;52.408;16.826;2023-07-30T02:39:53;12.70;;;7.70;;
26435;SDS011;15351;52.408;16.826;2023-07-30T02:43:35;11.40;;;7.60;;
26435;SDS011;15351;52.408;16.826;2023-07-30T02:46:51;11.00;;;8.00;;
26435;SDS011;15351;52.408;16.826;2023-07-30T02:49:37;11.70;;;7.20;;
26435;SDS011;15351;52.408;16.826;2023-07-30T02:56:28;13.80;;;7.70;;
26435;SDS011;15351;52.408;16.826;2023-07-30T03:03:42;14.90;;;7.90;;
26435;SDS011;15351;52.408;16.826;2023-07-30T03:07:12;14.10;;;7.80;;
26435;SDS011;15351;52.408;16.826;2023-07-30T03:13:55;14.50;;;8.30;;
26435;SDS011;15351;52.408;16.826;2023-07-30T03:16:32;12.40;;;8.50;;
26435;SDS011;15351;52.408;16.826;2023-07-30T03:18:58;13.10;;;9.10;;
26435;SDS011;15351;52.408;16.826;2023-07-30T03:21:28;13.70;;;9.30;;
26435;SDS011;15351;52.408;16.826;2023-07-30T03:24:02;13.30;;;8.60;;
26435;SDS011;15351;52.408;16.826;2023-07-30T03:26:29;11.30;;;8.90;;
26435;SDS011;15351;52.408;16.826;2023-07-30T03:29:17;13.70;;;9.50;;
26435;SDS011;15351;52.408;16.826;2023-07-30T03:34:51;12.00;;;9.30;;
26435;SDS011;15351;52.408;16.826;2023-07-30T03:37:58;12.70;;;9.20;;
26435;SDS011;15351;52.408;16.826;2023-07-30T03:40:37;11.20;;;9.10;;
26435;SDS011;15351;52.408;16.826;2023-07-30T03:43:04;12.40;;;9.30;;
26435;SDS011;15351;52.408;16.826;2023-07-30T03:45:57;11.30;;;9.00;;
26435;SDS011;15351;52.408;16.826;2023-07-30T03:48:43;15.80;;;9.10;;
26435;SDS011;15351;52.408;16.826;2023-07-30T03:51:58;14.50;;;9.70;;
26435;SDS011;15351;52.408;16.826;2023-07-30T03:54:28;10.80;;;9.00;;
26435;SDS011;15351;52.408;16.826;2023-07-30T03:56:58;11.50;;;9.30;;
26435;SDS011;15351;52.408;16.826;2023-07-30T04:00:07;10.60;;;9.30;;
26435;SDS011;15351;52.408;16.826;2023-07-30T04:02:44;10.30;;;9.00;;
26435;SDS011;15351;52.408;16.826;2023-07-30T04:05:18;10.80;;;9.40;;
26435;SDS011;15351;52.408;16.826;2023-07-30T04:07:52;12.20;;;10.00;;
26435;SDS011;15351;52.408;16.826;2023-07-30T04:10:47;12.40;;;9.50;;
26435;SDS011;15351;52.408;16.826;2023-07-30T04:13:49;10.80;;;9.60;;
26435;SDS011;15351;52.408;16.826;2023-07-30T04:16:43;10.80;;;9.60;;
26435;SDS011;15351;52.408;16.826;2023-07-30T04:19:13;12.30;;;9.90;;
26435;SDS011;15351;52.408;16.826;2023-07-30T04:21:44;13.30;;;9.80;;
26435;SDS011;15351;52.408;16.826;2023-07-30T04:24:24;12.00;;;10.00;;
26435;SDS011;15351;52.408;16.826;2023-07-30T04:27:01;13.20;;;10.50;;
26435;SDS011;15351;52.408;16.826;2023-07-30T04:29:29;12.60;;;10.10;;
26435;SDS011;15351;52.408;16.826;2023-07-30T04:32:02;12.20;;;10.20;;
26435;SDS011;15351;52.408;16.826;2023-07-30T04:34:29;13.00;;;10.00;;
26435;SDS011;15351;52.408;16.826;2023-07-30T04:37:36;12.50;;;10.40;;
26435;SDS011;15351;52.408;16.826;2023-07-30T04:40:24;13.90;;;11.20;;
26435;SDS011;15351;52.408;16.826;2023-07-30T04:43:33;14.60;;;11.30;;
26435;SDS011;15351;52.408;16.826;2023-07-30T04:46:04;14.30;;;11.40;;
26435;SDS011;15351;52.408;16.826;2023-07-30T04:48:33;13.30;;;11.00;;
26435;SDS011;15351;52.408;16.826;2023-07-30T04:51:02;15.00;;;12.10;;
26435;SDS011;15351;52.408;16.826;2023-07-30T04:53:41;15.90;;;12.10;;
26435;SDS011;15351;52.408;16.826;2023-07-30T04:56:08;13.50;;;11.90;;
26435;SDS011;15351;52.408;16.826;2023-07-30T04:58:59;15.20;;;12.50;;
26435;SDS011;15351;52.408;16.826;2023-07-30T05:02:09;14.30;;;12.60;;
26435;SDS011;15351;52.408;16.826;2023-07-30T05:05:04;17.00;;;12.00;;
26435;SDS011;15351;52.408;16.826;2023-07-30T05:07:33;13.70;;;11.80;;
26435;SDS011;15351;52.408;16.826;2023-07-30T05:14:02;15.20;;;12.20;;
26435;SDS011;15351;52.408;16.826;2023-07-30T05:16:32;15.60;;;11.90;;
26435;SDS011;15351;52.408;16.826;2023-07-30T05:18:59;13.60;;;12.10;;
26435;SDS011;15351;52.408;16.826;2023-07-30T05:21:38;14.40;;;12.20;;
26435;SDS011;15351;52.408;16.826;2023-07-30T05:24:58;15.40;;;11.90;;
26435;SDS011;15351;52.408;16.826;2023-07-30T05:27:34;14.90;;;11.60;;
26435;SDS011;15351;52.408;16.826;2023-07-30T05:30:53;14.70;;;11.90;;
26435;SDS011;15351;52.408;16.826;2023-07-30T05:33:19;15.00;;;11.60;;
26435;SDS011;15351;52.408;16.826;2023-07-30T05:39:14;13.90;;;11.30;;
26435;SDS011;15351;52.408;16.826;2023-07-30T05:41:59;13.30;;;11.10;;
26435;SDS011;15351;52.408;16.826;2023-07-30T05:47:48;14.70;;;10.80;;
26435;SDS011;15351;52.408;16.826;2023-07-30T05:50:17;13.80;;;10.50;;
26435;SDS011;15351;52.408;16.826;2023-07-30T05:52:44;12.90;;;10.40;;
26435;SDS011;15351;52.408;16.826;2023-07-30T05:55:19;13.00;;;10.50;;
26435;SDS011;15351;52.408;16.826;2023-07-30T05:58:03;12.50;;;10.00;;
26435;SDS011;15351;52.408;16.826;2023-07-30T06:00:32;12.40;;;10.40;;
26435;SDS011;15351;52.408;16.826;2023-07-30T06:03:19;11.90;;;10.70;;
26435;SDS011;15351;52.408;16.826;2023-07-30T06:05:58;12.00;;;10.30;;
26435;SDS011;15351;52.408;16.826;2023-07-30T06:08:32;12.10;;;10.80;;
26435;SDS011;15351;52.408;16.826;2023-07-30T06:11:02;13.90;;;10.70;;
26435;SDS011;15351;52.408;16.826;2023-07-30T06:14:03;12.30;;;11.00;;
26435;SDS011;15351;52.408;16.826;2023-07-30T06:16:53;12.70;;;10.70;;
26435;SDS011;15351;52.408;16.826;2023-07-30T06:20:25;13.00;;;10.90;;
26435;SDS011;15351;52.408;16.826;2023-07-30T06:23:14;12.20;;;10.40;;
26435;SDS011;15351;52.408;16.826;2023-07-30T06:25:44;11.70;;;10.40;;
26435;SDS011;15351;52.408;16.826;2023-07-30T06:28:14;12.90;;;10.60;;
26435;SDS011;15351;52.408;16.826;2023-07-30T06:31:19;13.40;;;10.30;;
26435;SDS011;15351;52.408;16.826;2023-07-30T06:33:48;11.50;;;10.00;;
26435;SDS011;15351;52.408;16.826;2023-07-30T06:36:38;12.30;;;10.30;;
26435;SDS011;15351;52.408;16.826;2023-07-30T06:42:38;10.90;;;9.80;;
26435;SDS011;15351;52.408;16.826;2023-07-30T06:45:08;12.50;;;9.70;;
26435;SDS011;15351;52.408;16.826;2023-07-30T06:47:43;12.60;;;9.80;;
26435;SDS011;15351;52.408;16.826;2023-07-30T06:54:13;10.50;;;9.40;;
26435;SDS011;15351;52.408;16.826;2023-07-30T06:56:45;10.70;;;9.00;;
26435;SDS011;15351;52.408;16.826;2023-07-30T06:59:55;12.00;;;8.90;;
26435;SDS011;15351;52.408;16.826;2023-07-30T07:02:48;11.00;;;9.10;;
26435;SDS011;15351;52.408;16.826;2023-07-30T07:05:14;10.30;;;9.20;;
26435;SDS011;15351;52.408;16.826;2023-07-30T07:08:03;10.60;;;8.90;;
26435;SDS011;15351;52.408;16.826;2023-07-30T07:10:38;9.40;;;8.30;;
26435;SDS011;15351;52.408;16.826;2023-07-30T07:13:09;9.50;;;8.20;;
26435;SDS011;15351;52.408;16.826;2023-07-30T07:15:43;8.70;;;6.80;;
26435;SDS011;15351;52.408;16.826;2023-07-30T07:21:20;9.70;;;8.60;;
26435;SDS011;15351;52.408;16.826;2023-07-30T07:23:52;9.20;;;8.20;;
26435;SDS011;15351;52.408;16.826;2023-07-30T07:26:24;11.80;;;8.10;;
26435;SDS011;15351;52.408;16.826;2023-07-30T07:29:09;10.70;;;8.10;;
26435;SDS011;15351;52.408;16.826;2023-07-30T07:31:41;8.50;;;7.60;;
26435;SDS011;15351;52.408;16.826;2023-07-30T07:35:07;9.10;;;7.40;;
26435;SDS011;15351;52.408;16.826;2023-07-30T07:38:03;9.50;;;7.40;;
26435;SDS011;15351;52.408;16.826;2023-07-30T07:51:09;9.40;;;6.80;;
26435;SDS011;15351;52.408;16.826;2023-07-30T07:57:17;9.00;;;6.70;;
26435;SDS011;15351;52.408;16.826;2023-07-30T07:59:47;7.50;;;6.50;;
26435;SDS011;15351;52.408;16.826;2023-07-30T08:03:28;7.70;;;6.00;;
26435;SDS011;15351;52.408;16.826;2023-07-30T08:06:54;8.80;;;5.90;;
26435;SDS011;15351;52.408;16.826;2023-07-30T08:09:43;6.90;;;6.20;;
26435;SDS011;15351;52.408;16.826;2023-07-30T08:12:51;9.50;;;6.00;;
26435;SDS011;15351;52.408;16.826;2023-07-30T08:15:51;5.60;;;5.00;;
26435;SDS011;15351;52.408;16.826;2023-07-30T08:22:12;7.10;;;5.60;;
26435;SDS011;15351;52.408;16.826;2023-07-30T08:25:03;7.70;;;5.50;;
26435;SDS011;15351;52.408;16.826;2023-07-30T08:27:57;6.90;;;5.40;;
26435;SDS011;15351;52.408;16.826;2023-07-30T08:34:07;9.20;;;5.10;;
26435;SDS011;15351;52.408;16.826;2023-07-30T08:40:23;9.60;;;6.00;;
26435;SDS011;15351;52.408;16.826;2023-07-30T08:46:47;7.50;;;5.60;;
26435;SDS011;15351;52.408;16.826;2023-07-30T08:49:40;8.10;;;5.80;;
26435;SDS011;15351;52.408;16.826;2023-07-30T08:53:10;8.80;;;6.00;;
26435;SDS011;15351;52.408;16.826;2023-07-30T08:55:57;9.80;;;5.90;;
26435;SDS011;15351;52.408;16.826;2023-07-30T08:58:54;6.50;;;5.20;;
26435;SDS011;15351;52.408;16.826;2023-07-30T09:09:37;6.80;;;4.40;;
26435;SDS011;15351;52.408;16.826;2023-07-30T09:15:58;5.00;;;4.00;;
26435;SDS011;15351;52.408;16.826;2023-07-30T09:19:19;5.40;;;4.00;;
26435;SDS011;15351;52.408;16.826;2023-07-30T09:21:52;7.10;;;3.70;;
26435;SDS011;15351;52.408;16.826;2023-07-30T09:27:41;4.40;;;2.70;;
26435;SDS011;15351;52.408;16.826;2023-07-30T09:31:01;5.10;;;2.60;;
26435;SDS011;15351;52.408;16.826;2023-07-30T09:34:17;3.60;;;2.70;;
26435;SDS011;15351;52.408;16.826;2023-07-30T09:37:08;4.00;;;3.00;;
26435;SDS011;15351;52.408;16.826;2023-07-30T09:50:58;3.30;;;2.50;;
26435;SDS011;15351;52.408;16.826;2023-07-30T09:53:42;3.80;;;2.70;;
26435;SDS011;15351;52.408;16.826;2023-07-30T09:57:00;3.20;;;2.50;;
26435;SDS011;15351;52.408;16.826;2023-07-30T09:59:48;3.90;;;2.60;;
26435;SDS011;15351;52.408;16.826;2023-07-30T10:02:49;3.70;;;2.60;;
26435;SDS011;15351;52.408;16.826;2023-07-30T10:05:23;7.00;;;2.50;;
26435;SDS011;15351;52.408;16.826;2023-07-30T10:08:56;3.80;;;2.50;;
26435;SDS011;15351;52.408;16.826;2023-07-30T10:12:20;3.30;;;2.30;;
26435;SDS011;15351;52.408;16.826;2023-07-30T10:15:38;4.70;;;2.30;;
26435;SDS011;15351;52.408;16.826;2023-07-30T10:18:56;3.90;;;2.30;;
26435;SDS011;15351;52.408;16.826;2023-07-30T10:36:04;3.10;;;2.30;;
26435;SDS011;15351;52.408;16.826;2023-07-30T10:38:53;3.80;;;2.20;;
26435;SDS011;15351;52.408;16.826;2023-07-30T10:41:45;3.40;;;2.20;;
26435;SDS011;15351;52.408;16.826;2023-07-30T10:44:33;2.40;;;2.10;;
26435;SDS011;15351;52.408;16.826;2023-07-30T13:31:26;1.70;;;1.50;;
26435;SDS011;15351;52.408;16.826;2023-07-30T13:34:17;1.70;;;1.50;;
26435;SDS011;15351;52.408;16.826;2023-07-30T13:37:34;1.70;;;1.60;;
26435;SDS011;15351;52.408;16.826;2023-07-30T13:41:07;2.30;;;1.50;;
26435;SDS011;15351;52.408;16.826;2023-07-30T13:51:05;2.40;;;1.40;;
26435;SDS011;15351;52.408;16.826;2023-07-30T13:56:53;2.40;;;1.50;;
26435;SDS011;15351;52.408;16.826;2023-07-30T14:00:08;6.20;;;1.70;;
26435;SDS011;15351;52.408;16.826;2023-07-30T14:02:36;2.00;;;1.30;;
26435;SDS011;15351;52.408;16.826;2023-07-30T14:16:21;3.40;;;1.70;;
26435;SDS011;15351;52.408;16.826;2023-07-30T14:19:33;2.40;;;1.50;;
26435;SDS011;15351;52.408;16.826;2023-07-30T14:25:07;1.50;;;1.40;;
26435;SDS011;15351;52.408;16.826;2023-07-30T14:31:25;2.70;;;1.70;;
26435;SDS011;15351;52.408;16.826;2023-07-30T14:34:33;2.30;;;1.60;;
26435;SDS011;15351;52.408;16.826;2023-07-30T14:38:15;8.60;;;1.80;;
26435;SDS011;15351;52.408;16.826;2023-07-30T14:40:56;4.80;;;1.80;;
26435;SDS011;15351;52.408;16.826;2023-07-30T14:50:24;5.80;;;2.00;;
26435;SDS011;15351;52.408;16.826;2023-07-30T15:10:21;5.30;;;2.00;;
26435;SDS011;15351;52.408;16.826;2023-07-30T15:13:38;4.90;;;1.90;;
26435;SDS011;15351;52.408;16.826;2023-07-30T15:17:02;3.90;;;1.90;;
26435;SDS011;15351;52.408;16.826;2023-07-30T15:23:03;4.70;;;1.70;;
26435;SDS011;15351;52.408;16.826;2023-07-30T15:25:51;3.20;;;1.90;;
26435;SDS011;15351;52.408;16.826;2023-07-30T15:28:20;3.80;;;1.80;;
26435;SDS011;15351;52.408;16.826;2023-07-30T15:30:48;5.00;;;1.70;;
26435;SDS011;15351;52.408;16.826;2023-07-30T15:33:23;4.40;;;1.70;;
26435;SDS011;15351;52.408;16.826;2023-07-30T15:35:49;2.40;;;1.60;;
26435;SDS011;15351;52.408;16.826;2023-07-30T15:38:16;3.10;;;1.60;;
26435;SDS011;15351;52.408;16.826;2023-07-30T15:40:43;2.60;;;1.60;;
26435;SDS011;15351;52.408;16.826;2023-07-30T15:43:10;2.90;;;1.60;;
26435;SDS011;15351;52.408;16.826;2023-07-30T15:45:43;4.20;;;1.80;;
26435;SDS011;15351;52.408;16.826;2023-07-30T15:48:12;2.30;;;1.70;;
26435;SDS011;15351;52.408;16.826;2023-07-30T15:51:02;3.80;;;1.60;;
26435;SDS011;15351;52.408;16.826;2023-07-30T15:53:30;3.50;;;1.80;;
26435;SDS011;15351;52.408;16.826;2023-07-30T15:55:59;3.10;;;1.60;;
26435;SDS011;15351;52.408;16.826;2023-07-30T15:58:30;3.70;;;1.70;;
26435;SDS011;15351;52.408;16.826;2023-07-30T16:00:57;3.50;;;2.00;;
26435;SDS011;15351;52.408;16.826;2023-07-30T16:03:39;2.90;;;1.70;;
26435;SDS011;15351;52.408;16.826;2023-07-30T16:06:16;2.20;;;1.90;;
26435;SDS011;15351;52.408;16.826;2023-07-30T16:08:43;2.20;;;2.00;;
26435;SDS011;15351;52.408;16.826;2023-07-30T16:11:11;4.70;;;1.90;;
26435;SDS011;15351;52.408;16.826;2023-07-30T16:13:39;3.20;;;1.90;;
26435;SDS011;15351;52.408;16.826;2023-07-30T16:16:15;3.90;;;1.80;;
26435;SDS011;15351;52.408;16.826;2023-07-30T16:18:46;2.30;;;2.00;;
26435;SDS011;15351;52.408;16.826;2023-07-30T16:21:35;2.10;;;1.90;;
26435;SDS011;15351;52.408;16.826;2023-07-30T16:24:03;3.70;;;2.10;;
26435;SDS011;15351;52.408;16.826;2023-07-30T16:26:32;3.60;;;2.20;;
26435;SDS011;15351;52.408;16.826;2023-07-30T16:29:02;3.50;;;2.40;;
26435;SDS011;15351;52.408;16.826;2023-07-30T16:31:52;3.00;;;2.40;;
26435;SDS011;15351;52.408;16.826;2023-07-30T16:34:26;3.00;;;2.30;;
26435;SDS011;15351;52.408;16.826;2023-07-30T16:37:12;3.50;;;2.30;;
26435;SDS011;15351;52.408;16.826;2023-07-30T16:40:42;3.10;;;2.30;;
26435;SDS011;15351;52.408;16.826;2023-07-30T16:43:12;2.90;;;2.40;;
26435;SDS011;15351;52.408;16.826;2023-07-30T16:45:39;4.50;;;2.70;;
26435;SDS011;15351;52.408;16.826;2023-07-30T16:48:08;3.40;;;2.60;;
26435;SDS011;15351;52.408;16.826;2023-07-30T16:50:34;4.40;;;2.70;;
26435;SDS011;15351;52.408;16.826;2023-07-30T16:53:37;3.10;;;2.50;;
26435;SDS011;15351;52.408;16.826;2023-07-30T16:56:18;3.10;;;2.70;;
26435;SDS011;15351;52.408;16.826;2023-07-30T17:01:50;3.10;;;2.50;;
26435;SDS011;15351;52.408;16.826;2023-07-30T17:04:22;3.10;;;2.40;;
26435;SDS011;15351;52.408;16.826;2023-07-30T17:09:47;3.50;;;2.50;;
26435;SDS011;15351;52.408;16.826;2023-07-30T17:13:35;3.50;;;2.60;;
26435;SDS011;15351;52.408;16.826;2023-07-30T17:19:52;3.80;;;2.40;;
26435;SDS011;15351;52.408;16.826;2023-07-30T17:22:19;6.20;;;2.50;;
26435;SDS011;15351;52.408;16.826;2023-07-30T17:24:48;4.20;;;2.40;;
26435;SDS011;15351;52.408;16.826;2023-07-30T17:31:25;4.40;;;2.30;;
26435;SDS011;15351;52.408;16.826;2023-07-30T17:34:42;2.90;;;2.20;;
26435;SDS011;15351;52.408;16.826;2023-07-30T17:37:11;4.10;;;2.20;;
26435;SDS011;15351;52.408;16.826;2023-07-30T17:39:49;4.50;;;2.00;;
26435;SDS011;15351;52.408;16.826;2023-07-30T17:50:10;4.30;;;2.40;;
26435;SDS011;15351;52.408;16.826;2023-07-30T17:53:54;2.90;;;2.30;;
26435;SDS011;15351;52.408;16.826;2023-07-30T18:00:23;4.70;;;3.00;;
26435;SDS011;15351;52.408;16.826;2023-07-30T18:02:50;3.50;;;2.60;;
26435;SDS011;15351;52.408;16.826;2023-07-30T18:05:22;4.60;;;2.50;;
26435;SDS011;15351;52.408;16.826;2023-07-30T18:07:51;3.80;;;2.20;;
26435;SDS011;15351;52.408;16.826;2023-07-30T18:10:17;3.10;;;2.30;;
26435;SDS011;15351;52.408;16.826;2023-07-30T18:15:23;3.50;;;2.30;;
26435;SDS011;15351;52.408;16.826;2023-07-30T18:17:50;3.20;;;2.30;;
26435;SDS011;15351;52.408;16.826;2023-07-30T18:20:17;5.10;;;2.30;;
26435;SDS011;15351;52.408;16.826;2023-07-30T18:22:43;3.60;;;2.50;;
26435;SDS011;15351;52.408;16.826;2023-07-30T18:25:10;3.40;;;2.50;;
26435;SDS011;15351;52.408;16.826;2023-07-30T18:27:36;3.80;;;2.40;;
26435;SDS011;15351;52.408;16.826;2023-07-30T18:30:08;2.90;;;2.10;;
26435;SDS011;15351;52.408;16.826;2023-07-30T18:32:35;3.50;;;2.20;;
26435;SDS011;15351;52.408;16.826;2023-07-30T18:35:02;15.00;;;3.50;;
26435;SDS011;15351;52.408;16.826;2023-07-30T18:37:30;20.70;;;4.30;;
26435;SDS011;15351;52.408;16.826;2023-07-30T18:39:58;19.00;;;4.00;;
26435;SDS011;15351;52.408;16.826;2023-07-30T18:42:26;23.20;;;4.20;;
26435;SDS011;15351;52.408;16.826;2023-07-30T18:44:53;10.00;;;3.60;;
26435;SDS011;15351;52.408;16.826;2023-07-30T18:47:20;7.80;;;3.60;;
26435;SDS011;15351;52.408;16.826;2023-07-30T18:50:07;5.60;;;3.40;;
26435;SDS011;15351;52.408;16.826;2023-07-30T18:52:34;3.40;;;2.60;;
26435;SDS011;15351;52.408;16.826;2023-07-30T18:55:04;4.70;;;2.60;;
26435;SDS011;15351;52.408;16.826;2023-07-30T18:57:31;6.30;;;2.90;;
26435;SDS011;15351;52.408;16.826;2023-07-30T18:59:58;6.00;;;2.90;;
26435;SDS011;15351;52.408;16.826;2023-07-30T19:02:25;4.00;;;2.60;;
26435;SDS011;15351;52.408;16.826;2023-07-30T19:04:52;4.50;;;2.70;;
26435;SDS011;15351;52.408;16.826;2023-07-30T19:07:19;5.70;;;2.70;;
26435;SDS011;15351;52.408;16.826;2023-07-30T19:09:46;5.90;;;2.90;;
26435;SDS011;15351;52.408;16.826;2023-07-30T19:12:13;6.00;;;3.00;;
26435;SDS011;15351;52.408;16.826;2023-07-30T19:14:43;4.10;;;2.80;;
26435;SDS011;15351;52.408;16.826;2023-07-30T19:17:09;3.60;;;3.00;;
26435;SDS011;15351;52.408;16.826;2023-07-30T19:19:35;6.90;;;3.00;;
26435;SDS011;15351;52.408;16.826;2023-07-30T19:22:01;4.60;;;3.10;;
26435;SDS011;15351;52.408;16.826;2023-07-30T19:24:28;4.50;;;2.90;;
26435;SDS011;15351;52.408;16.826;2023-07-30T19:26:55;6.50;;;3.00;;
26435;SDS011;15351;52.408;16.826;2023-07-30T19:29:22;4.40;;;3.10;;
26435;SDS011;15351;52.408;16.826;2023-07-30T19:31:49;4.20;;;3.00;;
26435;SDS011;15351;52.408;16.826;2023-07-30T19:34:15;3.90;;;2.90;;
26435;SDS011;15351;52.408;16.826;2023-07-30T19:36:41;6.30;;;2.90;;
26435;SDS011;15351;52.408;16.826;2023-07-30T19:39:11;5.10;;;2.80;;
26435;SDS011;15351;52.408;16.826;2023-07-30T19:41:37;4.50;;;2.90;;
26435;SDS011;15351;52.408;16.826;2023-07-30T19:44:04;5.40;;;3.00;;
26435;SDS011;15351;52.408;16.826;2023-07-30T19:46:32;4.50;;;2.80;;
26435;SDS011;15351;52.408;16.826;2023-07-30T19:48:59;4.60;;;2.70;;
26435;SDS011;15351;52.408;16.826;2023-07-30T19:51:27;4.30;;;2.60;;
26435;SDS011;15351;52.408;16.826;2023-07-30T19:53:55;4.10;;;2.60;;
26435;SDS011;15351;52.408;16.826;2023-07-30T19:56:34;5.00;;;2.80;;
26435;SDS011;15351;52.408;16.826;2023-07-30T19:59:03;4.40;;;2.60;;
26435;SDS011;15351;52.408;16.826;2023-07-30T20:01:34;4.40;;;2.80;;
26435;SDS011;15351;52.408;16.826;2023-07-30T20:04:07;4.60;;;2.60;;
26435;SDS011;15351;52.408;16.826;2023-07-30T20:06:33;5.00;;;2.80;;
26435;SDS011;15351;52.408;16.826;2023-07-30T20:09:02;6.30;;;2.70;;
26435;SDS011;15351;52.408;16.826;2023-07-30T20:11:28;5.40;;;2.80;;
26435;SDS011;15351;52.408;16.826;2023-07-30T20:14:13;4.40;;;3.00;;
26435;SDS011;15351;52.408;16.826;2023-07-30T20:17:01;4.50;;;2.90;;
26435;SDS011;15351;52.408;16.826;2023-07-30T20:19:48;4.60;;;3.00;;
26435;SDS011;15351;52.408;16.826;2023-07-30T20:22:25;3.90;;;2.70;;
26435;SDS011;15351;52.408;16.826;2023-07-30T20:24:55;4.90;;;3.10;;
26435;SDS011;15351;52.408;16.826;2023-07-30T20:27:32;6.60;;;3.30;;
26435;SDS011;15351;52.408;16.826;2023-07-30T20:30:12;6.60;;;3.30;;
26435;SDS011;15351;52.408;16.826;2023-07-30T20:32:50;5.80;;;3.20;;
26435;SDS011;15351;52.408;16.826;2023-07-30T20:35:22;5.20;;;3.20;;
26435;SDS011;15351;52.408;16.826;2023-07-30T20:37:48;3.60;;;2.60;;
26435;SDS011;15351;52.408;16.826;2023-07-30T20:40:21;6.30;;;3.00;;
26435;SDS011;15351;52.408;16.826;2023-07-30T20:42:48;4.90;;;2.80;;
26435;SDS011;15351;52.408;16.826;2023-07-30T20:45:15;5.10;;;3.00;;
26435;SDS011;15351;52.408;16.826;2023-07-30T20:47:42;3.80;;;2.70;;
26435;SDS011;15351;52.408;16.826;2023-07-30T20:50:13;5.20;;;3.00;;
26435;SDS011;15351;52.408;16.826;2023-07-30T20:52:45;5.30;;;2.80;;
26435;SDS011;15351;52.408;16.826;2023-07-30T20:55:17;5.10;;;2.80;;
26435;SDS011;15351;52.408;16.826;2023-07-30T20:57:49;4.50;;;2.50;;
26435;SDS011;15351;52.408;16.826;2023-07-30T21:00:16;5.90;;;2.80;;
26435;SDS011;15351;52.408;16.826;2023-07-30T21:02:49;3.20;;;2.60;;
26435;SDS011;15351;52.408;16.826;2023-07-30T21:05:16;4.40;;;2.70;;
26435;SDS011;15351;52.408;16.826;2023-07-30T21:07:44;5.80;;;2.60;;
26435;SDS011;15351;52.408;16.826;2023-07-30T21:10:10;3.90;;;2.40;;
26435;SDS011;15351;52.408;16.826;2023-07-30T21:12:42;6.70;;;2.80;;
26435;SDS011;15351;52.408;16.826;2023-07-30T21:15:09;3.50;;;2.30;;
26435;SDS011;15351;52.408;16.826;2023-07-30T21:17:36;3.30;;;2.20;;
26435;SDS011;15351;52.408;16.826;2023-07-30T21:20:03;4.00;;;2.30;;
26435;SDS011;15351;52.408;16.826;2023-07-30T21:22:32;4.60;;;2.10;;
26435;SDS011;15351;52.408;16.826;2023-07-30T21:25:02;4.30;;;2.10;;
26435;SDS011;15351;52.408;16.826;2023-07-30T21:27:31;2.50;;;2.00;;
26435;SDS011;15351;52.408;16.826;2023-07-30T21:30:00;4.10;;;2.00;;
26435;SDS011;15351;52.408;16.826;2023-07-30T21:32:30;2.90;;;2.00;;
26435;SDS011;15351;52.408;16.826;2023-07-30T21:35:01;4.10;;;1.90;;
26435;SDS011;15351;52.408;16.826;2023-07-30T21:37:27;2.70;;;1.90;;
26435;SDS011;15351;52.408;16.826;2023-07-30T21:39:56;2.80;;;1.80;;
26435;SDS011;15351;52.408;16.826;2023-07-30T21:42:26;3.70;;;1.60;;
26435;SDS011;15351;52.408;16.826;2023-07-30T21:44:54;3.00;;;1.60;;
26435;SDS011;15351;52.408;16.826;2023-07-30T21:47:20;3.30;;;1.50;;
26435;SDS011;15351;52.408;16.826;2023-07-30T21:49:47;3.00;;;1.60;;
26435;SDS011;15351;52.408;16.826;2023-07-30T21:52:26;4.30;;;1.60;;
26435;SDS011;15351;52.408;16.826;2023-07-30T21:54:58;2.10;;;1.50;;
26435;SDS011;15351;52.408;16.826;2023-07-30T21:57:24;2.70;;;1.50;;
26435;SDS011;15351;52.408;16.826;2023-07-30T21:59:51;2.30;;;1.50;;
26435;SDS011;15351;52.408;16.826;2023-07-30T22:02:21;3.70;;;1.50;;
26435;SDS011;15351;52.408;16.826;2023-07-30T22:04:48;3.10;;;1.50;;
26435;SDS011;15351;52.408;16.826;2023-07-30T22:07:18;3.60;;;1.50;;
26435;SDS011;15351;52.408;16.826;2023-07-30T22:09:54;4.80;;;1.50;;
26435;SDS011;15351;52.408;16.826;2023-07-30T22:12:21;3.40;;;1.40;;
26435;SDS011;15351;52.408;16.826;2023-07-30T22:14:47;2.30;;;1.40;;
26435;SDS011;15351;52.408;16.826;2023-07-30T22:17:13;4.30;;;1.50;;
26435;SDS011;15351;52.408;16.826;2023-07-30T22:19:44;2.80;;;1.40;;
26435;SDS011;15351;52.408;16.826;2023-07-30T22:22:10;3.40;;;1.40;;
26435;SDS011;15351;52.408;16.826;2023-07-30T22:24:37;2.90;;;1.70;;
26435;SDS011;15351;52.408;16.826;2023-07-30T22:27:04;3.80;;;1.60;;
26435;SDS011;15351;52.408;16.826;2023-07-30T22:29:30;3.50;;;1.70;;
26435;SDS011;15351;52.408;16.826;2023-07-30T22:31:56;3.70;;;1.80;;